createdAt,value
2018-05-04T00:00:38.794Z,0.00
2018-05-04T00:01:38.796Z,0.00
2018-05-04T00:02:38.805Z,0.00
2018-05-04T00:03:38.746Z,0.00
2018-05-04T00:04:38.732Z,0.00
2018-05-04T00:05:38.716Z,0.00
2018-05-04T00:06:38.711Z,0.00
2018-05-04T00:07:38.683Z,0.00
2018-05-04T00:08:38.672Z,0.00
2018-05-04T00:09:38.651Z,0.00
2018-05-04T00:10:38.651Z,0.00
2018-05-04T00:11:38.618Z,0.00
2018-05-04T00:12:38.599Z,0.00
2018-05-04T00:13:38.589Z,0.00
2018-05-04T00:14:38.574Z,0.00
2018-05-04T00:15:38.554Z,0.00
2018-05-04T00:16:38.550Z,0.00
2018-05-04T00:17:38.521Z,0.00
2018-05-04T00:18:38.505Z,0.00
2018-05-04T00:19:38.488Z,0.00
2018-05-04T00:20:38.473Z,0.00
2018-05-04T00:21:38.475Z,0.00
2018-05-04T00:22:38.442Z,0.00
2018-05-04T00:23:38.422Z,0.00
2018-05-04T00:24:38.474Z,0.00
2018-05-04T00:25:38.392Z,0.00
2018-05-04T00:26:38.390Z,0.00
2018-05-04T00:27:38.362Z,0.00
2018-05-04T00:28:38.343Z,0.00
2018-05-04T00:29:38.328Z,0.00
2018-05-04T00:30:38.310Z,0.00
2018-05-04T00:31:38.298Z,0.00
2018-05-04T00:32:38.295Z,0.00
2018-05-04T00:33:38.263Z,0.00
2018-05-04T00:34:38.246Z,0.00
2018-05-04T00:35:38.230Z,0.00
2018-05-04T00:36:38.212Z,0.00
2018-05-04T00:37:38.209Z,0.00
2018-05-04T00:38:38.175Z,0.00
2018-05-04T00:39:38.164Z,0.00
2018-05-04T00:40:38.149Z,0.00
2018-05-04T00:41:38.130Z,0.00
2018-05-04T00:42:38.130Z,0.00
2018-05-04T00:43:38.114Z,0.00
2018-05-04T00:44:38.082Z,0.00
2018-05-04T00:45:38.069Z,0.00
2018-05-04T00:46:38.053Z,0.00
2018-05-04T00:47:38.033Z,0.00
2018-05-04T00:48:38.034Z,0.00
2018-05-04T00:49:38.004Z,0.00
2018-05-04T00:50:37.986Z,0.00
2018-05-04T00:51:37.963Z,0.00
2018-05-04T00:52:37.955Z,0.00
2018-05-04T00:53:37.936Z,0.00
2018-05-04T00:54:37.933Z,0.00
2018-05-04T00:55:37.903Z,0.00
2018-05-04T00:56:37.888Z,0.00
2018-05-04T00:57:37.874Z,0.00
2018-05-04T00:58:37.853Z,0.00
2018-05-04T00:59:37.842Z,0.00
2018-05-04T01:00:37.837Z,0.00
2018-05-04T01:01:37.804Z,0.00
2018-05-04T01:02:37.785Z,0.00
2018-05-04T01:03:37.771Z,0.00
2018-05-04T01:04:37.756Z,0.00
2018-05-04T01:05:37.755Z,0.00
2018-05-04T01:06:37.721Z,0.00
2018-05-04T01:07:37.708Z,0.00
2018-05-04T01:08:37.688Z,0.00
2018-05-04T01:09:37.671Z,0.00
2018-05-04T01:10:37.673Z,0.00
2018-05-04T01:11:37.640Z,0.00
2018-05-04T01:12:37.619Z,0.00
2018-05-04T01:13:37.603Z,0.00
2018-05-04T01:14:37.590Z,0.00
2018-05-04T01:15:37.571Z,0.00
2018-05-04T01:16:37.573Z,0.00
2018-05-04T01:17:37.539Z,0.00
2018-05-04T01:18:37.524Z,0.00
2018-05-04T01:19:37.506Z,0.00
2018-05-04T01:20:37.493Z,0.00
2018-05-04T01:21:37.479Z,0.00
2018-05-04T01:22:37.474Z,0.00
2018-05-04T01:23:37.443Z,0.00
2018-05-04T01:24:37.427Z,0.00
2018-05-04T01:25:37.409Z,0.00
2018-05-04T01:26:37.393Z,0.00
2018-05-04T01:27:37.385Z,0.00
2018-05-04T01:28:37.362Z,0.00
2018-05-04T01:29:37.346Z,0.00
2018-05-04T01:30:37.327Z,0.00
2018-05-04T01:31:37.310Z,0.00
2018-05-04T01:32:37.314Z,0.00
2018-05-04T01:33:37.276Z,0.00
2018-05-04T01:34:37.258Z,0.00
2018-05-04T01:35:37.258Z,0.00
2018-05-04T01:36:37.227Z,0.00
2018-05-04T01:37:37.228Z,0.00
2018-05-04T01:38:37.211Z,0.00
2018-05-04T01:39:37.185Z,0.00
2018-05-04T01:40:37.160Z,0.00
2018-05-04T01:41:37.159Z,0.00
2018-05-04T01:42:37.127Z,0.00
2018-05-04T01:43:37.126Z,0.00
2018-05-04T01:44:37.096Z,0.00
2018-05-04T01:45:37.081Z,0.00
2018-05-04T01:46:37.068Z,0.00
2018-05-04T01:47:37.045Z,0.00
2018-05-04T01:48:37.044Z,0.00
2018-05-04T01:49:37.032Z,0.00
2018-05-04T01:50:36.993Z,0.00
2018-05-04T01:51:36.977Z,0.00
2018-05-04T01:52:36.961Z,0.00
2018-05-04T01:53:36.946Z,0.00
2018-05-04T01:54:36.931Z,0.00
2018-05-04T01:55:36.929Z,0.00
2018-05-04T01:56:36.896Z,0.00
2018-05-04T01:57:36.880Z,0.00
2018-05-04T01:58:36.862Z,0.00
2018-05-04T01:59:36.865Z,0.00
2018-05-04T02:00:36.832Z,0.00
2018-05-04T02:01:36.819Z,0.00
2018-05-04T02:02:36.794Z,0.00
2018-05-04T02:03:36.779Z,0.00
2018-05-04T02:04:36.763Z,0.00
2018-05-04T02:05:36.761Z,0.00
2018-05-04T02:06:36.726Z,0.00
2018-05-04T02:07:36.713Z,0.00
2018-05-04T02:08:36.697Z,0.00
2018-05-04T02:09:36.683Z,0.00
2018-05-04T02:10:36.681Z,0.00
2018-05-04T02:11:36.652Z,0.00
2018-05-04T02:12:36.626Z,0.00
2018-05-04T02:13:36.616Z,0.00
2018-05-04T02:14:36.598Z,0.00
2018-05-04T02:15:36.579Z,0.00
2018-05-04T02:16:57.574Z,0.00
2018-05-04T02:17:36.549Z,0.00
2018-05-04T02:18:36.597Z,0.00
2018-05-04T02:19:36.537Z,0.00
2018-05-04T02:20:36.494Z,0.00
2018-05-04T02:21:36.498Z,0.00
2018-05-04T02:22:36.465Z,0.00
2018-05-04T02:23:36.446Z,0.00
2018-05-04T02:24:36.425Z,0.00
2018-05-04T02:25:36.411Z,0.00
2018-05-04T02:26:36.413Z,0.00
2018-05-04T02:27:36.380Z,0.00
2018-05-04T02:28:36.363Z,0.00
2018-05-04T02:29:36.345Z,0.00
2018-05-04T02:30:36.330Z,0.00
2018-05-04T02:31:36.313Z,0.00
2018-05-04T02:32:36.310Z,0.00
2018-05-04T02:33:36.279Z,0.00
2018-05-04T02:34:36.261Z,0.00
2018-05-04T02:35:36.247Z,0.00
2018-05-04T02:36:36.227Z,0.00
2018-05-04T02:37:36.238Z,0.00
2018-05-04T02:38:36.200Z,0.00
2018-05-04T02:39:36.173Z,0.00
2018-05-04T02:40:36.170Z,0.00
2018-05-04T02:41:36.148Z,0.00
2018-05-04T02:42:36.128Z,0.00
2018-05-04T02:43:36.127Z,0.00
2018-05-04T02:44:36.093Z,0.00
2018-05-04T02:45:36.076Z,0.00
2018-05-04T02:46:36.061Z,0.00
2018-05-04T02:47:36.042Z,0.00
2018-05-04T02:48:36.025Z,0.00
2018-05-04T02:49:36.030Z,0.00
2018-05-04T02:50:35.992Z,0.00
2018-05-04T02:51:35.977Z,0.00
2018-05-04T02:52:35.961Z,0.00
2018-05-04T02:53:35.944Z,0.00
2018-05-04T02:54:35.924Z,0.00
2018-05-04T02:55:35.923Z,0.00
2018-05-04T02:56:35.893Z,0.00
2018-05-04T02:57:35.875Z,0.00
2018-05-04T02:58:35.857Z,0.00
2018-05-04T02:59:35.842Z,0.00
2018-05-04T03:00:35.838Z,0.00
2018-05-04T03:01:35.815Z,0.00
2018-05-04T03:02:35.790Z,0.00
2018-05-04T03:03:35.773Z,0.00
2018-05-04T03:04:35.757Z,0.00
2018-05-04T03:05:35.754Z,0.00
2018-05-04T03:06:35.742Z,0.00
2018-05-04T03:07:35.705Z,0.00
2018-05-04T03:08:35.692Z,0.00
2018-05-04T03:09:35.674Z,0.00
2018-05-04T03:10:35.657Z,0.00
2018-05-04T03:11:35.642Z,0.00
2018-05-04T03:12:35.635Z,0.00
2018-05-04T03:13:35.606Z,0.00
2018-05-04T03:14:35.589Z,0.00
2018-05-04T03:15:35.570Z,0.00
2018-05-04T03:16:35.554Z,0.00
2018-05-04T03:17:35.558Z,0.00
2018-05-04T03:18:35.522Z,0.00
2018-05-04T03:19:35.505Z,0.00
2018-05-04T03:20:35.487Z,0.00
2018-05-04T03:21:35.469Z,0.00
2018-05-04T03:22:35.468Z,0.00
2018-05-04T03:23:35.436Z,0.00
2018-05-04T03:24:35.422Z,0.00
2018-05-04T03:25:35.403Z,0.00
2018-05-04T03:26:35.380Z,0.00
2018-05-04T03:27:35.384Z,0.00
2018-05-04T03:28:35.348Z,0.00
2018-05-04T03:29:35.336Z,0.00
2018-05-04T03:30:35.315Z,0.00
2018-05-04T03:31:35.301Z,0.00
2018-05-04T03:32:35.284Z,0.00
2018-05-04T03:33:35.288Z,0.00
2018-05-04T03:34:35.251Z,0.00
2018-05-04T03:35:35.231Z,0.00
2018-05-04T03:36:35.214Z,0.00
2018-05-04T03:37:35.198Z,0.00
2018-05-04T03:38:35.180Z,0.00
2018-05-04T03:39:35.178Z,0.00
2018-05-04T03:40:35.148Z,0.00
2018-05-04T03:41:35.132Z,0.00
2018-05-04T03:42:35.129Z,0.00
2018-05-04T03:43:35.096Z,0.00
2018-05-04T03:44:35.077Z,0.00
2018-05-04T03:45:35.063Z,0.00
2018-05-04T03:46:35.043Z,0.00
2018-05-04T03:47:35.045Z,0.00
2018-05-04T03:48:35.011Z,0.00
2018-05-04T03:49:35.023Z,0.00
2018-05-04T03:50:34.978Z,0.00
2018-05-04T03:51:34.960Z,0.00
2018-05-04T03:52:34.943Z,0.00
2018-05-04T03:53:55.937Z,0.00
2018-05-04T03:54:34.907Z,0.00
2018-05-04T03:55:34.906Z,0.00
2018-05-04T03:56:34.872Z,0.00
2018-05-04T03:57:34.856Z,0.00
2018-05-04T03:58:34.856Z,0.00
2018-05-04T03:59:34.820Z,0.00
2018-05-04T04:00:34.804Z,0.00
2018-05-04T04:01:34.786Z,0.00
2018-05-04T04:02:34.880Z,0.00
2018-05-04T04:03:34.764Z,0.00
2018-05-04T04:04:34.739Z,0.00
2018-05-04T04:05:34.717Z,0.00
2018-05-04T04:06:34.704Z,0.00
2018-05-04T04:07:34.684Z,0.00
2018-05-04T04:08:34.663Z,0.00
2018-05-04T04:09:34.663Z,0.00
2018-05-04T04:10:34.629Z,5.63
2018-05-04T04:11:34.613Z,5.63
2018-05-04T04:12:34.616Z,5.63
2018-05-04T04:13:34.646Z,5.63
2018-05-04T04:14:34.560Z,5.63
2018-05-04T04:15:34.560Z,5.63
2018-05-04T04:16:34.526Z,5.63
2018-05-04T04:17:34.513Z,5.63
2018-05-04T04:18:34.493Z,5.63
2018-05-04T04:19:34.475Z,11.25
2018-05-04T04:20:34.473Z,11.25
2018-05-04T04:21:34.442Z,11.25
2018-05-04T04:22:34.426Z,11.25
2018-05-04T04:23:34.406Z,11.25
2018-05-04T04:24:34.389Z,11.25
2018-05-04T04:25:34.387Z,11.25
2018-05-04T04:26:34.355Z,11.25
2018-05-04T04:27:34.338Z,16.88
2018-05-04T04:28:34.319Z,16.88
2018-05-04T04:29:34.315Z,16.88
2018-05-04T04:30:34.286Z,16.88
2018-05-04T04:31:34.272Z,16.88
2018-05-04T04:32:34.268Z,16.88
2018-05-04T04:33:34.236Z,22.50
2018-05-04T04:34:34.227Z,22.50
2018-05-04T04:35:34.197Z,22.50
2018-05-04T04:36:34.184Z,22.50
2018-05-04T04:37:34.166Z,22.50
2018-05-04T04:38:34.147Z,22.50
2018-05-04T04:39:34.143Z,22.50
2018-05-04T04:40:34.118Z,22.50
2018-05-04T04:41:34.113Z,22.50
2018-05-04T04:42:34.095Z,22.50
2018-05-04T04:43:34.064Z,28.13
2018-05-04T04:44:34.047Z,28.13
2018-05-04T04:45:34.115Z,28.13
2018-05-04T04:46:34.013Z,28.13
2018-05-04T04:47:34.009Z,28.13
2018-05-04T04:48:33.979Z,28.13
2018-05-04T04:49:33.961Z,28.13
2018-05-04T04:50:33.948Z,28.13
2018-05-04T04:51:33.988Z,28.13
2018-05-04T04:52:33.913Z,28.13
2018-05-04T04:53:33.909Z,28.13
2018-05-04T04:54:33.894Z,28.13
2018-05-04T04:55:33.861Z,28.13
2018-05-04T04:56:33.847Z,28.13
2018-05-04T04:57:33.827Z,28.13
2018-05-04T04:58:33.810Z,28.13
2018-05-04T04:59:33.799Z,28.13
2018-05-04T05:00:33.792Z,28.13
2018-05-04T05:01:33.760Z,33.75
2018-05-04T05:02:33.742Z,33.75
2018-05-04T05:03:33.738Z,33.75
2018-05-04T05:04:33.709Z,33.75
2018-05-04T05:05:33.712Z,33.75
2018-05-04T05:06:33.676Z,33.75
2018-05-04T05:07:33.658Z,33.75
2018-05-04T05:08:33.647Z,33.75
2018-05-04T05:09:33.637Z,33.75
2018-05-04T05:10:33.641Z,33.75
2018-05-04T05:11:33.594Z,39.38
2018-05-04T05:12:33.575Z,39.38
2018-05-04T05:13:33.613Z,39.38
2018-05-04T05:14:33.542Z,39.38
2018-05-04T05:15:33.522Z,39.38
2018-05-04T05:16:33.521Z,39.38
2018-05-04T05:17:33.491Z,45.00
2018-05-04T05:18:33.472Z,45.00
2018-05-04T05:19:33.457Z,56.25
2018-05-04T05:20:33.440Z,56.25
2018-05-04T05:21:33.441Z,50.63
2018-05-04T05:22:33.406Z,50.63
2018-05-04T05:23:33.469Z,45.00
2018-05-04T05:24:33.373Z,45.00
2018-05-04T05:25:33.359Z,45.00
2018-05-04T05:26:33.341Z,45.00
2018-05-04T05:27:33.338Z,45.00
2018-05-04T05:28:33.309Z,50.63
2018-05-04T05:29:33.363Z,50.63
2018-05-04T05:30:33.272Z,45.00
2018-05-04T05:31:33.273Z,45.00
2018-05-04T05:32:33.260Z,50.63
2018-05-04T05:33:33.291Z,50.63
2018-05-04T05:34:33.205Z,56.25
2018-05-04T05:35:33.195Z,56.25
2018-05-04T05:36:33.177Z,56.25
2018-05-04T05:37:33.159Z,50.63
2018-05-04T05:38:33.156Z,50.63
2018-05-04T05:39:33.123Z,50.63
2018-05-04T05:40:33.110Z,50.63
2018-05-04T05:41:33.093Z,50.63
2018-05-04T05:42:33.084Z,50.63
2018-05-04T05:43:33.079Z,50.63
2018-05-04T05:44:33.045Z,56.25
2018-05-04T05:45:33.033Z,56.25
2018-05-04T05:46:33.015Z,56.25
2018-05-04T05:47:32.997Z,56.25
2018-05-04T05:48:32.982Z,56.25
2018-05-04T05:49:32.979Z,56.25
2018-05-04T05:50:32.950Z,56.25
2018-05-04T05:51:32.932Z,56.25
2018-05-04T05:52:32.912Z,56.25
2018-05-04T05:53:32.897Z,56.25
2018-05-04T05:54:32.933Z,61.88
2018-05-04T05:55:32.893Z,61.88
2018-05-04T05:56:32.852Z,67.50
2018-05-04T05:57:32.837Z,67.50
2018-05-04T05:58:32.833Z,61.88
2018-05-04T05:59:32.806Z,56.25
2018-05-04T06:00:32.806Z,56.25
2018-05-04T06:01:32.784Z,56.25
2018-05-04T06:02:32.755Z,56.25
2018-05-04T06:03:32.741Z,56.25
2018-05-04T06:04:32.725Z,56.25
2018-05-04T06:05:32.707Z,56.25
2018-05-04T06:06:32.706Z,61.88
2018-05-04T06:07:32.678Z,61.88
2018-05-04T06:08:32.661Z,61.88
2018-05-04T06:09:32.645Z,61.88
2018-05-04T06:10:32.630Z,61.88
2018-05-04T06:11:32.626Z,61.88
2018-05-04T06:12:32.629Z,61.88
2018-05-04T06:13:32.582Z,61.88
2018-05-04T06:14:32.568Z,61.88
2018-05-04T06:15:32.550Z,61.88
2018-05-04T06:16:32.548Z,61.88
2018-05-04T06:17:32.520Z,61.88
2018-05-04T06:18:32.506Z,61.88
2018-05-04T06:19:32.488Z,61.88
2018-05-04T06:20:32.473Z,61.88
2018-05-04T06:21:32.455Z,61.88
2018-05-04T06:22:32.455Z,67.50
2018-05-04T06:23:32.450Z,67.50
2018-05-04T06:24:32.409Z,67.50
2018-05-04T06:25:32.400Z,67.50
2018-05-04T06:26:32.376Z,67.50
2018-05-04T06:27:32.363Z,67.50
2018-05-04T06:28:32.347Z,67.50
2018-05-04T06:29:32.346Z,67.50
2018-05-04T06:30:32.314Z,67.50
2018-05-04T06:31:32.303Z,67.50
2018-05-04T06:32:32.286Z,67.50
2018-05-04T06:33:32.269Z,67.50
2018-05-04T06:34:32.255Z,67.50
2018-05-04T06:35:32.258Z,67.50
2018-05-04T06:36:32.225Z,67.50
2018-05-04T06:37:32.205Z,73.13
2018-05-04T06:38:32.215Z,73.13
2018-05-04T06:39:32.175Z,73.13
2018-05-04T06:40:32.161Z,73.13
2018-05-04T06:41:32.160Z,73.13
2018-05-04T06:42:32.130Z,73.13
2018-05-04T06:43:32.115Z,73.13
2018-05-04T06:44:32.112Z,73.13
2018-05-04T06:45:32.098Z,73.13
2018-05-04T06:46:32.066Z,73.13
2018-05-04T06:47:32.056Z,73.13
2018-05-04T06:48:32.040Z,78.75
2018-05-04T06:49:32.023Z,78.75
2018-05-04T06:50:32.023Z,78.75
2018-05-04T06:51:31.993Z,78.75
2018-05-04T06:52:31.976Z,78.75
2018-05-04T06:53:31.964Z,78.75
2018-05-04T06:54:31.944Z,78.75
2018-05-04T06:55:31.930Z,78.75
2018-05-04T06:56:31.935Z,78.75
2018-05-04T06:57:31.905Z,84.38
2018-05-04T06:58:31.886Z,84.38
2018-05-04T06:59:31.875Z,84.38
2018-05-04T07:00:31.858Z,84.38
2018-05-04T07:01:31.842Z,84.38
2018-05-04T07:02:31.837Z,84.38
2018-05-04T07:03:31.810Z,84.38
2018-05-04T07:04:31.794Z,84.38
2018-05-04T07:05:31.789Z,84.38
2018-05-04T07:06:31.766Z,84.38
2018-05-04T07:07:31.766Z,90.00
2018-05-04T07:08:31.736Z,90.00
2018-05-04T07:09:31.723Z,90.00
2018-05-04T07:10:31.792Z,90.00
2018-05-04T07:11:31.693Z,90.00
2018-05-04T07:12:31.692Z,90.00
2018-05-04T07:13:31.665Z,90.00
2018-05-04T07:14:31.646Z,90.00
2018-05-04T07:15:31.633Z,90.00
2018-05-04T07:16:31.617Z,90.00
2018-05-04T07:17:31.605Z,101.25
2018-05-04T07:18:31.603Z,168.75
2018-05-04T07:19:31.572Z,180.00
2018-05-04T07:20:31.576Z,180.00
2018-05-04T07:21:32.144Z,101.25
2018-05-04T07:22:31.530Z,95.63
2018-05-04T07:23:32.072Z,95.63
2018-05-04T07:24:31.494Z,95.63
2018-05-04T07:25:31.496Z,95.63
2018-05-04T07:26:31.470Z,95.63
2018-05-04T07:27:31.457Z,95.63
2018-05-04T07:28:31.442Z,95.63
2018-05-04T07:29:31.426Z,95.63
2018-05-04T07:30:31.414Z,95.63
2018-05-04T07:31:31.411Z,95.63
2018-05-04T07:32:31.399Z,95.63
2018-05-04T07:33:31.372Z,101.25
2018-05-04T07:34:31.351Z,101.25
2018-05-04T07:35:31.340Z,101.25
2018-05-04T07:36:31.327Z,101.25
2018-05-04T07:37:31.325Z,101.25
2018-05-04T07:38:31.294Z,101.25
2018-05-04T07:39:31.283Z,101.25
2018-05-04T07:40:31.267Z,101.25
2018-05-04T07:41:31.274Z,101.25
2018-05-04T07:42:31.237Z,101.25
2018-05-04T07:43:31.225Z,101.25
2018-05-04T07:44:31.208Z,101.25
2018-05-04T07:45:31.194Z,106.88
2018-05-04T07:46:31.181Z,106.88
2018-05-04T07:47:31.181Z,112.50
2018-05-04T07:48:31.167Z,112.50
2018-05-04T07:49:31.152Z,101.25
2018-05-04T07:50:31.125Z,101.25
2018-05-04T07:51:31.119Z,101.25
2018-05-04T07:52:31.095Z,101.25
2018-05-04T07:53:31.083Z,106.88
2018-05-04T07:54:31.086Z,112.50
2018-05-04T07:55:31.053Z,118.13
2018-05-04T07:56:31.041Z,112.50
2018-05-04T07:57:31.029Z,112.50
2018-05-04T07:58:31.013Z,106.88
2018-05-04T07:59:30.996Z,106.88
2018-05-04T08:00:30.997Z,106.88
2018-05-04T08:01:30.968Z,106.88
2018-05-04T08:02:31.023Z,106.88
2018-05-04T08:03:30.942Z,106.88
2018-05-04T08:04:30.926Z,112.50
2018-05-04T08:05:30.914Z,112.50
2018-05-04T08:06:30.915Z,112.50
2018-05-04T08:07:30.888Z,112.50
2018-05-04T08:08:30.885Z,112.50
2018-05-04T08:09:30.863Z,112.50
2018-05-04T08:10:30.845Z,112.50
2018-05-04T08:11:30.849Z,118.13
2018-05-04T08:12:30.820Z,118.13
2018-05-04T08:13:30.807Z,118.13
2018-05-04T08:14:30.794Z,118.13
2018-05-04T08:15:30.776Z,118.13
2018-05-04T08:16:30.765Z,118.13
2018-05-04T08:17:30.768Z,123.75
2018-05-04T08:18:30.737Z,123.75
2018-05-04T08:19:30.720Z,123.75
2018-05-04T08:20:30.711Z,123.75
2018-05-04T08:21:30.697Z,123.75
2018-05-04T08:22:30.700Z,123.75
2018-05-04T08:23:30.668Z,129.38
2018-05-04T08:24:30.657Z,129.38
2018-05-04T08:25:30.645Z,129.38
2018-05-04T08:26:30.635Z,129.38
2018-05-04T08:27:30.786Z,129.38
2018-05-04T08:28:30.600Z,135.00
2018-05-04T08:29:30.610Z,129.38
2018-05-04T08:30:30.576Z,135.00
2018-05-04T08:31:30.563Z,135.00
2018-05-04T08:32:30.551Z,140.63
2018-05-04T08:33:30.539Z,146.25
2018-05-04T08:34:30.525Z,185.63
2018-05-04T08:35:30.629Z,157.50
2018-05-04T08:36:30.503Z,157.50
2018-05-04T08:37:30.482Z,174.38
2018-05-04T08:38:30.472Z,219.38
2018-05-04T08:39:30.477Z,264.38
2018-05-04T08:40:30.533Z,376.88
2018-05-04T08:41:30.429Z,635.63
2018-05-04T08:42:30.419Z,185.63
2018-05-04T08:43:30.406Z,191.25
2018-05-04T08:44:30.395Z,180.00
2018-05-04T08:45:30.398Z,174.38
2018-05-04T08:46:30.366Z,168.75
2018-05-04T08:47:30.370Z,168.75
2018-05-04T08:48:30.345Z,174.38
2018-05-04T08:49:30.332Z,174.38
2018-05-04T08:50:30.315Z,174.38
2018-05-04T08:51:30.309Z,180.00
2018-05-04T08:52:51.307Z,185.63
2018-05-04T08:53:30.282Z,219.38
2018-05-04T08:54:30.268Z,202.50
2018-05-04T08:55:30.258Z,196.88
2018-05-04T08:56:30.246Z,208.13
2018-05-04T08:57:30.278Z,315.00
2018-05-04T08:58:30.218Z,247.50
2018-05-04T08:59:30.207Z,286.88
2018-05-04T09:00:30.194Z,230.63
2018-05-04T09:01:30.187Z,219.38
2018-05-04T09:02:30.172Z,230.63
2018-05-04T09:03:30.180Z,247.50
2018-05-04T09:04:30.150Z,236.25
2018-05-04T09:05:30.274Z,360.00
2018-05-04T09:06:30.124Z,759.38
2018-05-04T09:07:30.117Z,1496.25
2018-05-04T09:08:30.120Z,1198.13
2018-05-04T09:09:30.086Z,1209.38
2018-05-04T09:10:30.076Z,1400.63
2018-05-04T09:11:30.066Z,1406.25
2018-05-04T09:12:30.056Z,1575.00
2018-05-04T09:13:30.047Z,2356.88
2018-05-04T09:14:30.046Z,2874.38
2018-05-04T09:15:30.022Z,2520.00
2018-05-04T09:16:30.072Z,2896.88
2018-05-04T09:17:30.001Z,2992.50
2018-05-04T09:18:29.987Z,3076.88
2018-05-04T09:19:29.991Z,3138.75
2018-05-04T09:20:29.984Z,3054.38
2018-05-04T09:21:29.954Z,2604.38
2018-05-04T09:22:29.943Z,2418.75
2018-05-04T09:23:29.934Z,2480.63
2018-05-04T09:24:29.935Z,2553.75
2018-05-04T09:25:29.912Z,2941.88
2018-05-04T09:26:29.899Z,3403.13
2018-05-04T09:27:29.890Z,3729.38
2018-05-04T09:28:29.881Z,3976.88
2018-05-04T09:29:29.895Z,4134.38
2018-05-04T09:30:29.861Z,3881.25
2018-05-04T09:31:29.849Z,3279.38
2018-05-04T09:32:29.845Z,2553.75
2018-05-04T09:33:29.839Z,1861.88
2018-05-04T09:34:29.843Z,1698.75
2018-05-04T09:35:29.825Z,1665.00
2018-05-04T09:36:29.812Z,1653.75
2018-05-04T09:37:29.810Z,1648.13
2018-05-04T09:38:29.822Z,1642.50
2018-05-04T09:39:29.816Z,1648.13
2018-05-04T09:40:29.791Z,1648.13
2018-05-04T09:41:29.799Z,1648.13
2018-05-04T09:42:29.776Z,1653.75
2018-05-04T09:43:29.891Z,1659.38
2018-05-04T09:44:29.774Z,1653.75
2018-05-04T09:45:29.767Z,1653.75
2018-05-04T09:46:29.761Z,1665.00
2018-05-04T09:47:29.756Z,1670.63
2018-05-04T09:48:29.771Z,1710.00
2018-05-04T09:49:29.751Z,1721.25
2018-05-04T09:50:29.745Z,1732.50
2018-05-04T09:51:29.743Z,1755.00
2018-05-04T09:52:29.742Z,1755.00
2018-05-04T09:53:29.751Z,1771.88
2018-05-04T09:54:29.734Z,1794.38
2018-05-04T09:55:29.745Z,1805.63
2018-05-04T09:56:29.728Z,1816.88
2018-05-04T09:57:29.731Z,1839.38
2018-05-04T09:58:29.728Z,1861.88
2018-05-04T09:59:29.735Z,1890.00
2018-05-04T10:00:29.744Z,1873.13
2018-05-04T10:01:29.719Z,1918.13
2018-05-04T10:02:29.717Z,1918.13
2018-05-04T10:03:29.720Z,1929.38
2018-05-04T10:04:29.712Z,1918.13
2018-05-04T10:05:29.711Z,1929.38
2018-05-04T10:06:29.735Z,1940.63
2018-05-04T10:07:29.706Z,1968.75
2018-05-04T10:08:29.704Z,1968.75
2018-05-04T10:09:29.704Z,1991.25
2018-05-04T10:10:29.704Z,2030.63
2018-05-04T10:11:29.708Z,2030.63
2018-05-04T10:12:29.734Z,2041.88
2018-05-04T10:13:29.700Z,2053.13
2018-05-04T10:14:29.699Z,2064.38
2018-05-04T10:15:29.695Z,2070.00
2018-05-04T10:16:29.698Z,2075.63
2018-05-04T10:17:29.698Z,2086.88
2018-05-04T10:18:29.706Z,2103.75
2018-05-04T10:19:29.700Z,2115.00
2018-05-04T10:20:29.695Z,2098.13
2018-05-04T10:21:29.724Z,2103.75
2018-05-04T10:22:29.710Z,2064.38
2018-05-04T10:23:29.697Z,2131.88
2018-05-04T10:24:29.694Z,2165.63
2018-05-04T10:25:29.694Z,2154.38
2018-05-04T10:26:29.694Z,2160.00
2018-05-04T10:27:29.694Z,2154.38
2018-05-04T10:28:29.714Z,2171.25
2018-05-04T10:29:29.697Z,2182.50
2018-05-04T10:30:29.692Z,2188.13
2018-05-04T10:31:29.767Z,2199.38
2018-05-04T10:32:29.694Z,2165.63
2018-05-04T10:33:29.696Z,2199.38
2018-05-04T10:34:29.710Z,2210.63
2018-05-04T10:35:29.727Z,2210.63
2018-05-04T10:36:29.695Z,2210.63
2018-05-04T10:37:29.706Z,2221.88
2018-05-04T10:38:29.737Z,2233.13
2018-05-04T10:39:29.698Z,2227.50
2018-05-04T10:40:29.699Z,2255.63
2018-05-04T10:41:29.699Z,2266.88
2018-05-04T10:42:29.698Z,2283.75
2018-05-04T10:43:29.709Z,2289.38
2018-05-04T10:44:29.704Z,2278.13
2018-05-04T10:45:29.701Z,2289.38
2018-05-04T10:46:29.701Z,2272.50
2018-05-04T10:47:29.702Z,2283.75
2018-05-04T10:48:29.708Z,2283.75
2018-05-04T10:49:29.723Z,2300.63
2018-05-04T10:50:29.708Z,2244.38
2018-05-04T10:51:29.707Z,2233.13
2018-05-04T10:52:29.707Z,2272.50
2018-05-04T10:53:29.712Z,2289.38
2018-05-04T10:54:29.724Z,2300.63
2018-05-04T10:55:29.712Z,2300.63
2018-05-04T10:56:29.730Z,2154.38
2018-05-04T10:57:29.717Z,2283.75
2018-05-04T10:58:29.717Z,2317.50
2018-05-04T10:59:29.719Z,2300.63
2018-05-04T11:00:29.720Z,2351.25
2018-05-04T11:01:29.736Z,2345.63
2018-05-04T11:02:29.721Z,2362.50
2018-05-04T11:03:29.722Z,2368.13
2018-05-04T11:04:29.728Z,2379.38
2018-05-04T11:05:29.725Z,2373.75
2018-05-04T11:06:29.745Z,2368.13
2018-05-04T11:07:29.730Z,2351.25
2018-05-04T11:08:29.730Z,2379.38
2018-05-04T11:09:29.731Z,2385.00
2018-05-04T11:10:29.734Z,2368.13
2018-05-04T11:11:29.737Z,2362.50
2018-05-04T11:12:29.752Z,2328.75
2018-05-04T11:13:29.736Z,2345.63
2018-05-04T11:14:29.739Z,2311.88
2018-05-04T11:15:29.736Z,2238.75
2018-05-04T11:16:29.755Z,2193.75
2018-05-04T11:17:29.740Z,1895.63
2018-05-04T11:18:29.747Z,2205.00
2018-05-04T11:19:29.751Z,1968.75
2018-05-04T11:20:29.746Z,2210.63
2018-05-04T11:21:29.763Z,2176.88
2018-05-04T11:22:29.748Z,2261.25
2018-05-04T11:23:29.750Z,2176.88
2018-05-04T11:24:29.765Z,2233.13
2018-05-04T11:25:29.852Z,2261.25
2018-05-04T11:26:29.774Z,2120.63
2018-05-04T11:27:29.774Z,2255.63
2018-05-04T11:28:29.774Z,2238.75
2018-05-04T11:29:29.763Z,2250.00
2018-05-04T11:30:29.765Z,2160.00
2018-05-04T11:31:29.765Z,1636.88
2018-05-04T11:32:29.768Z,1170.00
2018-05-04T11:33:29.785Z,2255.63
2018-05-04T11:34:29.766Z,2233.13
2018-05-04T11:35:29.790Z,2053.13
2018-05-04T11:36:29.777Z,1929.38
2018-05-04T11:37:29.779Z,1513.13
2018-05-04T11:38:29.783Z,990.00
2018-05-04T11:39:29.780Z,1839.38
2018-05-04T11:40:29.796Z,939.38
2018-05-04T11:41:29.788Z,2205.00
2018-05-04T11:42:29.786Z,2193.75
2018-05-04T11:43:29.787Z,810.00
2018-05-04T11:44:29.796Z,888.75
2018-05-04T11:45:29.811Z,866.25
2018-05-04T11:46:29.796Z,933.75
2018-05-04T11:47:29.797Z,939.38
2018-05-04T11:48:29.803Z,956.25
2018-05-04T11:49:29.807Z,776.25
2018-05-04T11:50:29.808Z,1192.50
2018-05-04T11:51:29.823Z,905.63
2018-05-04T11:52:29.807Z,1507.50
2018-05-04T11:53:29.813Z,1985.63
2018-05-04T11:54:29.811Z,1074.38
2018-05-04T11:55:29.815Z,1681.88
2018-05-04T11:56:29.818Z,1620.00
2018-05-04T11:57:29.839Z,1456.88
2018-05-04T11:58:29.819Z,1226.25
2018-05-04T11:59:29.842Z,1681.88
2018-05-04T12:00:29.829Z,1867.50
2018-05-04T12:01:29.832Z,1642.50
2018-05-04T12:02:29.851Z,1597.50
2018-05-04T12:03:29.835Z,1771.88
2018-05-04T12:04:29.838Z,1749.38
2018-05-04T12:05:29.838Z,1687.50
2018-05-04T12:06:29.840Z,1755.00
2018-05-04T12:07:29.843Z,1305.00
2018-05-04T12:08:29.866Z,1597.50
2018-05-04T12:09:29.849Z,1603.13
2018-05-04T12:10:29.853Z,1338.75
2018-05-04T12:11:29.852Z,1428.75
2018-05-04T12:12:29.856Z,888.75
2018-05-04T12:13:29.859Z,905.63
2018-05-04T12:14:29.879Z,680.63
2018-05-04T12:15:29.862Z,675.00
2018-05-04T12:16:29.920Z,973.13
2018-05-04T12:17:29.865Z,573.75
2018-05-04T12:18:29.868Z,815.63
2018-05-04T12:19:29.878Z,511.88
2018-05-04T12:20:29.894Z,883.13
2018-05-04T12:21:29.896Z,489.38
2018-05-04T12:22:29.881Z,585.00
2018-05-04T12:23:29.886Z,601.88
2018-05-04T12:24:29.905Z,1113.75
2018-05-04T12:25:29.887Z,1265.63
2018-05-04T12:26:29.893Z,1096.88
2018-05-04T12:27:29.897Z,1479.38
2018-05-04T12:28:29.894Z,838.13
2018-05-04T12:29:50.915Z,1333.13
2018-05-04T12:30:29.904Z,1828.13
2018-05-04T12:31:29.898Z,877.50
2018-05-04T12:32:29.904Z,1591.88
2018-05-04T12:33:29.907Z,1400.63
2018-05-04T12:34:29.924Z,1321.88
2018-05-04T12:35:29.923Z,1018.13
2018-05-04T12:36:29.912Z,1141.88
2018-05-04T12:37:29.912Z,1389.38
2018-05-04T12:38:29.989Z,1546.88
2018-05-04T12:39:29.936Z,1141.88
2018-05-04T12:40:29.926Z,1597.50
2018-05-04T12:41:29.922Z,1001.25
2018-05-04T12:42:29.922Z,1372.50
2018-05-04T12:43:29.925Z,1355.63
2018-05-04T12:44:29.930Z,691.88